Time;durP1;ratioP1;P1;durP2;ratioP2;P2;SDS_P1;SDS_P2;PMS_P1;PMS_P2;Temp;Humidity;BMP_temperature;BMP_pressure;BME280_temperature;BME280_humidity;BME280_pressure;Samples;Min_cycle;Max_cycle;Signal;HPM_P1;HPM_P2
2021/01/11 00:00:33;;;;;;;44.35;29.92;;;0.20;1.00;;;;;;5093559;28;20239;-78
2021/01/11 00:03:00;;;;;;;39.78;26.17;;;0.20;1.00;;;;;;5093786;28;20205;-80
2021/01/11 00:05:27;;;;;;;37.47;25.60;;;0.20;1.00;;;;;;5096418;28;20240;-79
2021/01/11 00:07:54;;;;;;;42.10;26.55;;;0.20;1.00;;;;;;5088520;28;20283;-81
2021/01/11 00:10:20;;;;;;;33.53;23.83;;;0.20;1.00;;;;;;5099915;28;20236;-79
2021/01/11 00:12:48;;;;;;;34.90;23.75;;;0.20;1.00;;;;;;5073922;28;20232;-78
2021/01/11 00:15:15;;;;;;;36.05;22.55;;;0.20;1.00;;;;;;5070661;28;20233;-79
2021/01/11 00:17:42;;;;;;;33.70;22.92;;;0.20;1.00;;;;;;5097964;28;20234;-79
2021/01/11 00:20:10;;;;;;;37.25;22.73;;;0.20;1.00;;;;;;5096328;28;20233;-78
2021/01/11 00:22:36;;;;;;;33.25;20.77;;;0.30;1.00;;;;;;5098125;28;20209;-79
2021/01/11 00:25:05;;;;;;;32.65;20.10;;;0.30;1.00;;;;;;5095294;28;20236;-79
2021/01/11 00:27:32;;;;;;;26.20;17.88;;;0.30;1.00;;;;;;5092171;28;21253;-81
2021/01/11 00:29:58;;;;;;;27.90;20.13;;;0.20;1.00;;;;;;5086162;28;20268;-80
2021/01/11 00:32:25;;;;;;;30.42;20.20;;;0.20;1.00;;;;;;5087956;28;20216;-80
2021/01/11 00:34:51;;;;;;;29.35;19.42;;;0.20;1.00;;;;;;5097176;28;20223;-79
2021/01/11 00:37:18;;;;;;;26.90;19.85;;;0.30;1.00;;;;;;5096325;28;20773;-78
2021/01/11 00:39:44;;;;;;;29.20;19.40;;;0.30;1.00;;;;;;5090931;28;20224;-80
2021/01/11 00:42:11;;;;;;;30.33;20.02;;;0.30;1.00;;;;;;5095387;28;20220;-81
2021/01/11 00:44:38;;;;;;;28.30;20.05;;;0.40;1.00;;;;;;5092121;28;20247;-82
2021/01/11 00:47:05;;;;;;;27.88;20.17;;;0.40;1.00;;;;;;5084429;28;20300;-82
2021/01/11 00:49:32;;;;;;;30.83;19.83;;;0.40;1.00;;;;;;5071041;28;20239;-81
2021/01/11 00:51:58;;;;;;;27.55;19.60;;;0.40;1.00;;;;;;5091331;28;20197;-78
2021/01/11 00:54:25;;;;;;;29.05;20.60;;;0.40;1.00;;;;;;5078443;28;20232;-78
2021/01/11 00:56:51;;;;;;;27.80;19.38;;;0.40;1.00;;;;;;5094800;28;20225;-78
2021/01/11 00:59:18;;;;;;;29.88;21.85;;;0.40;1.00;;;;;;5097440;28;20269;-77
2021/01/11 01:01:49;;;;;;;28.63;21.55;;;0.40;1.00;;;;;;5074148;28;20209;-78
2021/01/11 01:04:16;;;;;;;26.75;20.17;;;0.50;1.00;;;;;;5094150;28;20243;-78
2021/01/11 01:06:42;;;;;;;28.10;19.98;;;0.50;1.00;;;;;;5072410;28;20259;-77
2021/01/11 01:09:09;;;;;;;30.40;21.55;;;0.50;1.00;;;;;;5096446;27;20217;-78
2021/01/11 01:11:38;;;;;;;28.08;20.70;;;0.60;1.00;;;;;;5077886;28;20221;-78
2021/01/11 01:14:04;;;;;;;32.78;21.88;;;0.60;1.00;;;;;;5096711;27;20334;-80
2021/01/11 01:16:32;;;;;;;32.33;22.48;;;0.70;1.00;;;;;;5089777;28;20226;-78
2021/01/11 01:18:59;;;;;;;30.42;20.95;;;0.70;1.00;;;;;;5078299;28;20322;-79
2021/01/11 01:21:25;;;;;;;30.67;21.15;;;0.80;1.00;;;;;;5096629;28;20212;-78
2021/01/11 01:23:52;;;;;;;29.77;21.52;;;0.80;1.00;;;;;;5095804;27;20209;-78
2021/01/11 01:26:19;;;;;;;20.60;16.33;;;0.90;1.00;;;;;;5097783;27;20221;-78
2021/01/11 01:28:45;;;;;;;27.85;19.58;;;0.90;1.00;;;;;;5095785;28;20235;-78
2021/01/11 01:31:14;;;;;;;25.02;17.23;;;0.90;1.00;;;;;;5091325;28;20221;-86
2021/01/11 01:33:44;;;;;;;27.17;18.88;;;0.90;1.00;;;;;;5082099;28;20216;-84
2021/01/11 01:36:11;;;;;;;23.17;17.80;;;0.90;1.00;;;;;;5096086;28;20251;-83
2021/01/11 01:38:38;;;;;;;24.15;18.33;;;0.90;1.00;;;;;;5087281;28;20898;-84
2021/01/11 01:41:05;;;;;;;22.60;16.40;;;0.80;1.00;;;;;;5062766;28;21025;-80
2021/01/11 01:43:32;;;;;;;25.65;17.90;;;0.80;1.00;;;;;;5091686;28;20248;-84
2021/01/11 01:46:00;;;;;;;22.42;16.75;;;0.80;1.00;;;;;;5071788;28;20225;-84
2021/01/11 01:48:26;;;;;;;22.20;16.55;;;0.90;1.00;;;;;;5075763;28;20221;-85
2021/01/11 01:50:54;;;;;;;27.73;17.30;;;0.90;1.00;;;;;;5100888;28;20221;-82
2021/01/11 01:53:24;;;;;;;24.70;17.85;;;0.90;1.00;;;;;;5096143;28;20217;-83
2021/01/11 01:55:51;;;;;;;23.63;17.45;;;0.80;1.00;;;;;;5084312;28;20276;-84
2021/01/11 01:58:19;;;;;;;20.55;15.52;;;0.90;1.00;;;;;;5098191;28;20229;-87
2021/01/11 02:00:47;;;;;;;23.98;16.83;;;1.00;1.00;;;;;;5075772;28;20291;-86
2021/01/11 02:03:13;;;;;;;23.80;17.42;;;1.00;1.00;;;;;;5086684;28;21051;-85
2021/01/11 02:05:40;;;;;;;24.27;16.25;;;1.00;1.00;;;;;;5093618;28;20252;-82
2021/01/11 02:08:17;;;;;;;23.70;17.55;;;1.00;1.00;;;;;;5093871;28;20251;-84
2021/01/11 02:11:07;;;;;;;22.73;15.80;;;1.10;1.00;;;;;;5070277;28;20229;-83
2021/01/11 02:13:49;;;;;;;24.05;15.90;;;1.10;1.00;;;;;;5071022;28;21226;-84
2021/01/11 02:16:24;;;;;;;21.40;15.20;;;1.10;1.00;;;;;;5079136;28;20244;-85
2021/01/11 02:19:01;;;;;;;20.25;15.63;;;1.10;1.00;;;;;;5096852;28;20243;-82
2021/01/11 02:22:02;;;;;;;22.90;16.85;;;1.10;1.00;;;;;;5082902;28;20300;-84
2021/01/11 02:25:06;;;;;;;21.30;15.48;;;1.10;1.00;;;;;;5087092;28;20228;-85
2021/01/11 02:27:45;;;;;;;20.58;15.48;;;1.10;1.00;;;;;;5093367;28;20224;-84
2021/01/11 02:30:16;;;;;;;22.85;14.10;;;1.10;1.00;;;;;;5071052;28;20434;-82
2021/01/11 02:32:48;;;;;;;22.27;14.40;;;1.00;1.00;;;;;;5066494;28;20283;-85
2021/01/11 02:35:18;;;;;;;18.92;14.38;;;1.10;1.00;;;;;;5074357;28;20231;-84
2021/01/11 02:37:46;;;;;;;18.98;13.90;;;1.20;1.00;;;;;;5077917;28;20209;-86
2021/01/11 02:40:13;;;;;;;18.15;13.80;;;1.20;1.00;;;;;;5097285;28;20220;-86
2021/01/11 02:42:40;;;;;;;18.90;14.35;;;1.20;1.00;;;;;;5080916;28;20216;-85
2021/01/11 02:45:12;;;;;;;18.73;13.95;;;1.20;1.00;;;;;;5101665;22;20232;-85
2021/01/11 02:48:04;;;;;;;15.90;11.98;;;1.20;1.00;;;;;;5094857;28;20458;-86
2021/01/11 02:50:40;;;;;;;16.20;13.63;;;1.20;1.00;;;;;;5090281;28;20842;-83
2021/01/11 02:53:10;;;;;;;16.90;13.35;;;1.20;1.00;;;;;;5092268;28;20258;-82
2021/01/11 02:55:47;;;;;;;22.42;13.95;;;1.20;1.00;;;;;;5083377;28;20296;-84
2021/01/11 02:58:22;;;;;;;20.25;14.77;;;1.10;1.00;;;;;;5088624;28;20237;-83
2021/01/11 03:00:53;;;;;;;20.00;14.02;;;1.10;1.00;;;;;;5086238;28;20909;-84
2021/01/11 03:03:23;;;;;;;21.67;16.48;;;1.10;1.00;;;;;;5089461;28;20245;-85
2021/01/11 03:05:53;;;;;;;19.42;14.48;;;1.00;1.00;;;;;;5084858;28;20223;-85
2021/01/11 03:08:24;;;;;;;20.15;15.15;;;1.00;1.00;;;;;;5096431;27;20327;-84
2021/01/11 03:10:51;;;;;;;21.02;14.43;;;0.90;1.00;;;;;;5075310;28;20244;-83
2021/01/11 03:13:18;;;;;;;20.95;14.65;;;0.90;1.00;;;;;;5081429;28;20230;-86
2021/01/11 03:15:45;;;;;;;17.73;13.77;;;1.00;1.00;;;;;;5079774;28;20221;-85
2021/01/11 03:18:12;;;;;;;23.30;16.15;;;1.00;1.00;;;;;;5082212;28;20232;-84
2021/01/11 03:20:40;;;;;;;21.38;15.95;;;1.00;1.00;;;;;;5085933;28;20338;-84
2021/01/11 03:23:07;;;;;;;22.13;15.15;;;1.00;1.00;;;;;;5077745;28;20974;-85
2021/01/11 03:25:33;;;;;;;24.45;17.95;;;1.00;1.00;;;;;;5072327;28;20225;-85
2021/01/11 03:28:00;;;;;;;19.02;15.15;;;1.00;1.00;;;;;;5077759;28;20221;-86
2021/01/11 03:30:27;;;;;;;24.50;17.13;;;1.00;1.00;;;;;;5073219;28;20228;-84
2021/01/11 03:32:53;;;;;;;21.23;15.93;;;1.10;1.00;;;;;;5081597;28;20304;-84
2021/01/11 03:35:20;;;;;;;22.45;17.25;;;1.10;1.00;;;;;;5074285;28;20300;-84
2021/01/11 03:37:50;;;;;;;19.75;16.13;;;1.10;1.00;;;;;;5083672;28;20217;-85
2021/01/11 03:40:17;;;;;;;25.40;16.63;;;1.10;1.00;;;;;;5082579;28;20245;-85
2021/01/11 03:42:44;;;;;;;20.65;16.27;;;1.10;1.00;;;;;;5076962;28;20265;-84
2021/01/11 03:45:12;;;;;;;18.92;13.73;;;1.10;1.00;;;;;;5081484;28;20247;-82
2021/01/11 03:47:38;;;;;;;20.42;14.00;;;1.10;1.00;;;;;;5081671;28;20221;-84
2021/01/11 03:50:08;;;;;;;20.52;13.73;;;1.10;1.00;;;;;;5079487;28;20221;-85
2021/01/11 03:52:37;;;;;;;23.13;15.45;;;1.10;1.00;;;;;;5079390;28;20300;-85
2021/01/11 03:55:06;;;;;;;19.25;14.38;;;1.10;1.00;;;;;;5076361;28;20206;-84
2021/01/11 03:57:33;;;;;;;20.75;15.68;;;1.10;1.00;;;;;;5082858;28;20228;-83
2021/01/11 04:00:00;;;;;;;19.65;14.18;;;1.00;1.00;;;;;;5081161;28;20220;-84
2021/01/11 04:02:27;;;;;;;20.70;14.57;;;1.00;1.00;;;;;;5085109;28;20239;-84
2021/01/11 04:04:54;;;;;;;20.85;14.82;;;0.90;1.00;;;;;;5083561;28;20221;-84
2021/01/11 04:07:21;;;;;;;19.23;14.57;;;0.90;1.00;;;;;;5084595;28;20289;-83
2021/01/11 04:09:48;;;;;;;18.90;15.75;;;0.90;1.00;;;;;;5089061;28;21479;-85
2021/01/11 04:12:15;;;;;;;21.60;14.60;;;0.80;1.00;;;;;;5094532;28;20294;-85
2021/01/11 04:14:42;;;;;;;23.35;18.58;;;0.80;1.00;;;;;;5082115;28;20226;-82
2021/01/11 04:17:09;;;;;;;21.80;15.68;;;0.80;1.00;;;;;;5080297;28;20229;-84
2021/01/11 04:19:36;;;;;;;22.50;17.73;;;0.80;1.00;;;;;;5073159;28;20220;-84
2021/01/11 04:22:02;;;;;;;24.67;17.77;;;0.70;1.00;;;;;;5077878;28;20236;-82
2021/01/11 04:24:29;;;;;;;25.58;17.75;;;0.70;1.00;;;;;;5082079;28;20225;-84
2021/01/11 04:26:55;;;;;;;27.42;20.42;;;0.70;1.00;;;;;;5074978;28;20224;-83
2021/01/11 04:29:23;;;;;;;23.27;18.15;;;0.70;1.00;;;;;;5079221;28;20228;-84
2021/01/11 04:31:49;;;;;;;25.50;20.45;;;0.70;1.00;;;;;;5077828;28;20262;-85
2021/01/11 04:34:16;;;;;;;22.52;18.42;;;0.70;1.00;;;;;;5072615;28;20297;-86
2021/01/11 04:36:43;;;;;;;31.15;20.40;;;0.70;1.00;;;;;;5075225;28;20218;-83
2021/01/11 04:39:09;;;;;;;27.02;20.20;;;0.60;1.00;;;;;;5085305;28;20220;-82
2021/01/11 04:41:40;;;;;;;24.35;19.02;;;0.70;1.00;;;;;;5079752;28;20236;-86
2021/01/11 04:44:10;;;;;;;25.77;19.30;;;0.60;1.00;;;;;;5076944;28;20233;-82
2021/01/11 04:46:37;;;;;;;27.88;22.02;;;0.70;1.00;;;;;;5100958;28;20238;-81
2021/01/11 04:49:05;;;;;;;24.73;18.33;;;0.70;1.00;;;;;;5092250;28;20247;-80
2021/01/11 04:51:39;;;;;;;28.48;18.13;;;0.80;1.00;;;;;;5101633;27;20197;-85
2021/01/11 04:54:07;;;;;;;24.27;18.05;;;0.80;1.00;;;;;;5081441;28;20301;-84
2021/01/11 04:56:40;;;;;;;29.33;22.27;;;0.70;1.00;;;;;;5079129;28;20414;-83
2021/01/11 04:59:08;;;;;;;26.83;20.77;;;0.80;1.00;;;;;;5094253;28;20218;-82
2021/01/11 05:01:35;;;;;;;26.95;20.85;;;0.80;1.00;;;;;;5091288;28;20230;-84
2021/01/11 05:04:03;;;;;;;25.67;20.65;;;0.80;1.00;;;;;;5104230;28;20237;-83
2021/01/11 05:06:35;;;;;;;28.67;21.23;;;0.90;1.00;;;;;;5090977;28;20380;-82
2021/01/11 05:09:13;;;;;;;25.50;20.85;;;0.90;1.00;;;;;;5096963;28;20213;-84
2021/01/11 05:11:39;;;;;;;26.52;20.55;;;0.90;1.00;;;;;;5094154;28;20216;-87
2021/01/11 05:14:06;;;;;;;29.63;22.67;;;0.90;1.00;;;;;;5100929;27;20240;-86
2021/01/11 05:16:34;;;;;;;26.60;23.02;;;0.90;1.00;;;;;;5092575;27;20237;-83
2021/01/11 05:19:23;;;;;;;29.58;21.42;;;0.80;1.00;;;;;;5086114;28;20232;-83
2021/01/11 05:21:51;;;;;;;30.02;23.30;;;0.90;1.00;;;;;;5070715;28;20780;-84
2021/01/11 05:24:35;;;;;;;27.38;23.40;;;0.80;1.00;;;;;;5087664;28;20771;-83
2021/01/11 05:27:03;;;;;;;29.10;21.05;;;0.90;1.00;;;;;;5081828;28;20289;-83
2021/01/11 05:29:30;;;;;;;28.02;20.58;;;0.90;1.00;;;;;;5081583;28;20264;-84
2021/01/11 05:31:58;;;;;;;32.30;23.15;;;0.90;1.00;;;;;;5074722;28;20225;-84
2021/01/11 05:34:46;;;;;;;25.52;21.75;;;0.90;1.00;;;;;;5082249;28;20293;-83
2021/01/11 05:37:35;;;;;;;25.73;19.88;;;1.00;1.00;;;;;;5071776;28;20216;-83
2021/01/11 05:40:08;;;;;;;29.05;22.85;;;1.00;1.00;;;;;;5071507;28;20383;-83
2021/01/11 05:42:36;;;;;;;26.95;20.33;;;1.00;1.00;;;;;;5071971;28;20255;-82
2021/01/11 05:45:13;;;;;;;25.00;19.95;;;1.00;1.00;;;;;;5067268;28;20237;-82
2021/01/11 05:48:25;;;;;;;26.50;20.85;;;1.00;1.00;;;;;;5070289;28;20294;-85
2021/01/11 05:51:04;;;;;;;26.65;18.30;;;1.00;1.00;;;;;;5078624;28;20225;-83
2021/01/11 05:53:31;;;;;;;23.67;18.33;;;1.00;1.00;;;;;;5082667;28;21144;-84
2021/01/11 05:55:57;;;;;;;20.48;15.98;;;1.00;1.00;;;;;;5078603;28;20291;-86
2021/01/11 05:58:25;;;;;;;20.95;16.67;;;1.00;1.00;;;;;;5084624;28;20229;-86
2021/01/11 06:00:52;;;;;;;24.33;17.35;;;1.00;1.00;;;;;;5073449;28;20307;-83
2021/01/11 06:03:19;;;;;;;23.08;18.70;;;1.00;1.00;;;;;;5083086;28;20221;-82
2021/01/11 06:05:46;;;;;;;27.95;20.88;;;1.00;1.00;;;;;;5082191;28;20255;-86
2021/01/11 06:08:14;;;;;;;23.45;17.15;;;1.00;1.00;;;;;;5093731;28;20205;-86
2021/01/11 06:10:45;;;;;;;21.23;17.13;;;1.00;1.00;;;;;;5091073;28;20213;-84
2021/01/11 06:13:13;;;;;;;21.08;17.50;;;1.00;1.00;;;;;;5085664;28;20226;-84
2021/01/11 06:15:40;;;;;;;21.73;17.02;;;1.00;1.00;;;;;;5092494;28;20229;-82
2021/01/11 06:18:09;;;;;;;23.70;17.60;;;1.00;1.00;;;;;;5095799;28;20232;-83
2021/01/11 06:20:41;;;;;;;22.52;16.10;;;0.90;1.00;;;;;;5078322;28;20928;-85
2021/01/11 06:23:08;;;;;;;24.90;18.25;;;0.90;1.00;;;;;;5068471;28;20283;-86
2021/01/11 06:25:46;;;;;;;21.58;17.38;;;0.90;1.00;;;;;;5075910;28;20238;-82
2021/01/11 06:28:13;;;;;;;23.17;18.42;;;0.90;1.00;;;;;;5097987;28;20224;-84
2021/01/11 06:30:46;;;;;;;25.05;18.63;;;1.00;1.00;;;;;;5077822;28;20256;-82
2021/01/11 06:33:15;;;;;;;20.40;17.00;;;0.90;1.00;;;;;;5077982;28;20228;-81
2021/01/11 06:35:45;;;;;;;27.50;17.75;;;0.90;1.00;;;;;;5079784;28;20221;-85
2021/01/11 06:38:19;;;;;;;23.38;17.60;;;0.90;1.00;;;;;;5083700;28;20293;-84
2021/01/11 06:40:52;;;;;;;26.83;18.75;;;0.90;1.00;;;;;;5082464;28;20236;-83
2021/01/11 06:43:20;;;;;;;28.48;18.85;;;1.00;1.00;;;;;;5085435;28;20235;-85
2021/01/11 06:45:50;;;;;;;28.55;20.15;;;1.00;1.00;;;;;;5084573;28;20233;-85
2021/01/11 06:48:19;;;;;;;22.48;17.35;;;1.00;1.00;;;;;;5098246;27;20208;-85
2021/01/11 06:50:47;;;;;;;20.38;16.77;;;1.10;1.00;;;;;;5105139;27;20208;-87
2021/01/11 06:53:27;;;;;;;25.15;18.33;;;1.10;1.00;;;;;;5096328;27;20208;-86
2021/01/11 06:56:07;;;;;;;23.02;18.60;;;1.10;1.00;;;;;;5093014;27;20242;-87
2021/01/11 06:58:36;;;;;;;18.63;16.45;;;1.00;1.00;;;;;;5094679;27;21459;-86
2021/01/11 07:01:11;;;;;;;20.42;16.30;;;1.00;1.00;;;;;;5080705;28;20251;-85
2021/01/11 07:03:51;;;;;;;22.63;16.75;;;1.00;1.00;;;;;;5092168;28;20274;-88
2021/01/11 07:06:35;;;;;;;22.88;17.15;;;0.80;1.00;;;;;;5083203;28;20276;-88
2021/01/11 07:09:11;;;;;;;22.35;16.58;;;0.90;1.00;;;;;;5094249;27;20208;-89
2021/01/11 07:11:40;;;;;;;19.75;16.77;;;0.90;1.00;;;;;;5092777;27;20216;-88
2021/01/11 07:14:08;;;;;;;18.90;14.77;;;0.90;1.00;;;;;;5080838;28;20220;-84
2021/01/11 07:16:42;;;;;;;20.73;15.70;;;1.00;1.00;;;;;;5078743;28;20260;-85
2021/01/11 07:19:10;;;;;;;24.55;18.20;;;1.00;1.00;;;;;;5082827;28;20217;-84
2021/01/11 07:21:37;;;;;;;21.52;15.77;;;0.90;1.00;;;;;;5081318;28;20237;-85
2021/01/11 07:24:07;;;;;;;23.42;16.98;;;1.00;1.00;;;;;;5087643;28;20245;-85
2021/01/11 07:26:35;;;;;;;21.23;15.55;;;1.00;1.00;;;;;;5074285;28;20225;-84
2021/01/11 07:29:06;;;;;;;19.55;15.07;;;0.90;1.00;;;;;;5079650;28;20259;-83
2021/01/11 07:31:38;;;;;;;18.98;14.65;;;0.90;1.00;;;;;;5071132;28;20233;-83
2021/01/11 07:34:07;;;;;;;17.73;14.35;;;0.90;1.00;;;;;;5074572;28;20215;-81
2021/01/11 07:36:39;;;;;;;18.58;14.30;;;0.80;1.00;;;;;;5078552;28;20197;-85
2021/01/11 07:39:25;;;;;;;17.23;14.75;;;0.80;1.00;;;;;;5080706;28;20233;-84
2021/01/11 07:41:55;;;;;;;19.50;14.35;;;0.80;1.00;;;;;;5083485;28;20240;-85
2021/01/11 07:44:25;;;;;;;19.75;16.17;;;0.80;1.00;;;;;;5089113;28;20479;-84
2021/01/11 07:46:57;;;;;;;20.58;14.65;;;0.80;1.00;;;;;;5094161;27;20232;-85
2021/01/11 07:49:25;;;;;;;18.50;14.63;;;0.70;1.00;;;;;;5086754;28;20260;-86
2021/01/11 07:51:52;;;;;;;17.42;15.25;;;0.90;1.00;;;;;;5093351;27;20222;-86
2021/01/11 07:54:21;;;;;;;20.23;14.57;;;0.90;1.00;;;;;;5092564;28;20221;-83
2021/01/11 07:56:50;;;;;;;18.00;14.68;;;0.90;1.00;;;;;;5079924;28;20224;-86
2021/01/11 07:59:18;;;;;;;20.02;14.57;;;1.00;1.00;;;;;;5099879;28;20231;-84
2021/01/11 08:01:47;;;;;;;20.95;14.88;;;1.00;1.00;;;;;;5098588;27;20212;-84
2021/01/11 08:04:14;;;;;;;19.60;13.88;;;1.00;1.00;;;;;;5090459;28;20209;-83
2021/01/11 08:06:45;;;;;;;20.65;14.23;;;1.00;1.00;;;;;;5097688;27;20227;-84
2021/01/11 08:09:13;;;;;;;18.30;13.65;;;1.00;1.00;;;;;;5084393;28;20240;-87
2021/01/11 08:11:40;;;;;;;19.92;14.30;;;1.10;1.00;;;;;;5080083;28;20220;-86
2021/01/11 08:14:07;;;;;;;19.33;15.27;;;1.10;1.00;;;;;;5078964;28;20233;-82
2021/01/11 08:16:35;;;;;;;18.48;14.75;;;1.20;1.00;;;;;;5085022;28;20252;-81
2021/01/11 08:19:06;;;;;;;15.38;12.70;;;1.20;1.00;;;;;;5068262;28;20229;-86
2021/01/11 08:21:34;;;;;;;16.05;13.45;;;1.20;1.00;;;;;;5092631;28;20243;-87
2021/01/11 08:24:05;;;;;;;20.77;15.95;;;1.20;1.00;;;;;;5082247;28;20232;-83
2021/01/11 08:26:43;;;;;;;16.90;14.43;;;1.30;1.00;;;;;;5082706;28;20225;-82
2021/01/11 08:29:12;;;;;;;19.73;15.60;;;1.30;1.00;;;;;;5082618;28;20293;-83
2021/01/11 08:31:40;;;;;;;17.80;15.70;;;1.30;1.00;;;;;;5089074;28;20253;-84
2021/01/11 08:34:08;;;;;;;21.95;15.52;;;1.30;1.00;;;;;;5083019;28;21331;-83
2021/01/11 08:36:35;;;;;;;24.27;16.77;;;1.40;1.00;;;;;;5085579;28;20221;-84
2021/01/11 08:39:14;;;;;;;19.38;14.80;;;1.50;1.00;;;;;;5088732;28;20220;-86
2021/01/11 08:41:43;;;;;;;20.00;15.35;;;1.50;1.00;;;;;;5084297;28;20236;-84
2021/01/11 08:44:29;;;;;;;23.02;18.75;;;1.50;1.00;;;;;;5084540;28;20386;-83
2021/01/11 08:47:00;;;;;;;15.32;13.45;;;1.50;1.00;;;;;;5080384;28;20221;-84
2021/01/11 08:49:29;;;;;;;17.02;13.85;;;1.50;1.00;;;;;;5076315;28;20236;-83
2021/01/11 08:52:10;;;;;;;15.15;13.52;;;1.60;1.00;;;;;;5090802;28;20627;-83
2021/01/11 08:54:37;;;;;;;16.95;13.50;;;1.60;1.00;;;;;;5086232;28;20236;-82
2021/01/11 08:57:14;;;;;;;15.88;13.07;;;1.60;1.00;;;;;;5087637;28;20241;-85
2021/01/11 08:59:49;;;;;;;15.25;12.80;;;1.60;1.00;;;;;;5096761;27;20232;-86
2021/01/11 09:02:27;;;;;;;17.92;13.82;;;1.60;1.00;;;;;;5095899;28;20262;-88
2021/01/11 09:04:56;;;;;;;18.65;13.80;;;1.60;1.00;;;;;;5095452;28;20210;-88
2021/01/11 09:07:28;;;;;;;16.85;13.18;;;1.70;1.00;;;;;;5073997;28;20311;-86
2021/01/11 09:09:55;;;;;;;17.80;13.45;;;1.80;1.00;;;;;;5089022;28;20268;-86
2021/01/11 09:12:34;;;;;;;17.63;13.18;;;1.80;1.00;;;;;;5073979;28;20248;-88
2021/01/11 09:15:01;;;;;;;17.48;13.68;;;1.70;1.00;;;;;;5083451;28;20236;-86
2021/01/11 09:17:30;;;;;;;19.77;14.13;;;1.60;1.00;;;;;;5081029;28;20225;-86
2021/01/11 09:20:02;;;;;;;17.75;12.93;;;1.60;1.00;;;;;;5090215;28;20225;-84
2021/01/11 09:22:39;;;;;;;14.82;12.15;;;1.60;1.00;;;;;;5064541;28;20245;-88
2021/01/11 09:25:12;;;;;;;15.60;12.00;;;1.60;1.00;;;;;;5088557;28;20213;-85
2021/01/11 09:27:40;;;;;;;19.48;13.85;;;1.60;1.00;;;;;;5072577;28;20253;-83
2021/01/11 09:30:09;;;;;;;17.73;14.32;;;1.70;1.00;;;;;;5075239;28;20221;-85
2021/01/11 09:32:36;;;;;;;17.05;12.55;;;1.70;1.00;;;;;;5064679;28;20276;-84
2021/01/11 09:35:05;;;;;;;15.13;12.90;;;1.80;1.00;;;;;;5092871;28;20224;-86
2021/01/11 09:37:33;;;;;;;15.98;12.80;;;1.90;1.00;;;;;;5070878;28;20217;-84
2021/01/11 09:40:00;;;;;;;13.73;11.60;;;1.90;1.00;;;;;;5097680;28;20224;-86
2021/01/11 09:42:27;;;;;;;15.35;12.63;;;1.90;1.00;;;;;;5096868;28;20243;-84
2021/01/11 09:44:53;;;;;;;14.95;12.73;;;1.90;1.00;;;;;;5082296;28;20212;-85
2021/01/11 09:47:23;;;;;;;14.52;12.43;;;2.00;1.00;;;;;;5098099;27;20201;-88
2021/01/11 09:49:52;;;;;;;13.05;11.65;;;1.90;1.00;;;;;;5082485;28;20220;-91
2021/01/11 09:52:25;;;;;;;14.27;11.50;;;2.00;1.00;;;;;;5091473;27;20214;-89
2021/01/11 09:54:53;;;;;;;16.45;11.30;;;2.00;1.00;;;;;;5091316;28;20241;-89
2021/01/11 09:57:20;;;;;;;15.55;11.40;;;2.00;1.00;;;;;;5088401;27;20225;-87
2021/01/11 09:59:48;;;;;;;13.95;10.55;;;2.10;1.00;;;;;;5080346;28;21457;-86
2021/01/11 10:02:20;;;;;;;14.48;11.77;;;2.20;1.00;;;;;;5080769;28;20241;-87
2021/01/11 10:04:48;;;;;;;12.38;10.95;;;2.10;1.00;;;;;;5085412;28;20238;-87
2021/01/11 10:07:20;;;;;;;12.40;11.10;;;2.10;1.00;;;;;;5082712;28;20224;-85
2021/01/11 10:09:49;;;;;;;14.63;12.15;;;2.10;1.00;;;;;;5084191;28;20221;-88
2021/01/11 10:12:25;;;;;;;12.98;10.98;;;2.20;1.00;;;;;;5076172;28;20237;-87
2021/01/11 10:14:55;;;;;;;13.25;10.98;;;2.20;1.00;;;;;;5079950;28;20240;-88
2021/01/11 10:17:23;;;;;;;13.77;11.13;;;2.20;1.00;;;;;;5082416;28;20225;-86
2021/01/11 10:19:49;;;;;;;18.52;11.70;;;2.10;1.00;;;;;;5076050;28;21164;-80
2021/01/11 10:22:16;;;;;;;13.32;10.90;;;2.10;1.00;;;;;;5087102;28;20232;-84
2021/01/11 10:24:50;;;;;;;14.88;12.82;;;2.20;1.00;;;;;;5089511;28;20243;-81
2021/01/11 10:27:21;;;;;;;14.15;11.55;;;2.10;1.00;;;;;;5074690;28;20221;-81
2021/01/11 10:29:48;;;;;;;11.52;10.30;;;2.20;1.00;;;;;;5068975;28;20224;-83
2021/01/11 10:32:16;;;;;;;10.70;9.48;;;2.30;1.00;;;;;;5070090;28;20299;-82
2021/01/11 10:34:42;;;;;;;12.40;9.88;;;2.30;1.00;;;;;;5065188;28;20228;-82
2021/01/11 10:37:09;;;;;;;13.07;11.60;;;2.30;1.00;;;;;;5071009;28;20332;-81
2021/01/11 10:39:35;;;;;;;10.43;9.10;;;2.40;1.00;;;;;;5068573;28;20250;-80
2021/01/11 10:42:02;;;;;;;11.75;8.50;;;2.40;1.00;;;;;;5072987;28;21183;-83
2021/01/11 10:44:30;;;;;;;10.38;9.35;;;2.50;1.00;;;;;;5071565;28;20431;-81
2021/01/11 10:46:59;;;;;;;14.85;9.90;;;2.50;1.00;;;;;;5069069;28;20221;-83
2021/01/11 10:49:26;;;;;;;10.98;8.85;;;2.60;1.00;;;;;;5078187;28;20610;-84
2021/01/11 10:51:55;;;;;;;19.00;11.60;;;2.60;1.00;;;;;;5073842;28;20212;-84
2021/01/11 10:54:22;;;;;;;14.63;10.38;;;2.50;1.00;;;;;;5072891;28;20240;-80
2021/01/11 10:56:51;;;;;;;12.90;9.88;;;2.50;1.00;;;;;;5078977;28;20236;-84
2021/01/11 10:59:19;;;;;;;13.43;10.98;;;2.50;1.00;;;;;;5085392;28;20225;-83
2021/01/11 11:01:48;;;;;;;9.95;8.95;;;2.50;1.00;;;;;;5069100;28;20229;-84
2021/01/11 11:04:15;;;;;;;11.40;9.73;;;2.50;1.00;;;;;;5072786;28;20229;-83
2021/01/11 11:06:47;;;;;;;16.33;9.43;;;2.40;1.00;;;;;;5076009;28;21162;-84
2021/01/11 11:09:17;;;;;;;11.52;10.40;;;2.40;1.00;;;;;;5077575;28;20214;-85
2021/01/11 11:11:44;;;;;;;15.52;10.70;;;2.30;1.00;;;;;;5087621;27;20229;-83
2021/01/11 11:14:10;;;;;;;11.98;9.32;;;2.30;1.00;;;;;;5090883;27;20216;-85
2021/01/11 11:16:38;;;;;;;12.02;9.73;;;2.30;1.00;;;;;;5087491;28;20243;-84
2021/01/11 11:19:06;;;;;;;14.68;10.95;;;2.30;1.00;;;;;;5092763;27;20228;-81
2021/01/11 11:21:33;;;;;;;14.07;10.30;;;2.20;1.00;;;;;;5072432;28;20237;-84
2021/01/11 11:23:59;;;;;;;13.32;10.10;;;2.20;1.00;;;;;;5064070;28;20218;-83
2021/01/11 11:26:26;;;;;;;13.05;9.85;;;2.20;1.00;;;;;;5090278;28;20239;-84
2021/01/11 11:28:54;;;;;;;13.90;10.35;;;2.20;1.00;;;;;;5076021;28;20213;-83
2021/01/11 11:31:21;;;;;;;12.98;9.65;;;2.20;1.00;;;;;;5066920;28;20287;-82
2021/01/11 11:33:47;;;;;;;13.25;9.40;;;2.20;1.00;;;;;;5072905;28;20233;-81
2021/01/11 11:36:18;;;;;;;9.52;8.43;;;2.20;1.00;;;;;;5069009;28;20387;-81
2021/01/11 11:38:45;;;;;;;12.88;8.90;;;2.20;1.00;;;;;;5074978;28;20233;-84
2021/01/11 11:41:12;;;;;;;10.55;8.65;;;2.30;1.00;;;;;;5082958;28;20307;-82
2021/01/11 11:43:39;;;;;;;10.55;8.63;;;2.30;1.00;;;;;;5081614;28;20345;-81
2021/01/11 11:46:06;;;;;;;12.05;9.05;;;2.30;1.00;;;;;;5088498;28;20229;-84
2021/01/11 11:48:33;;;;;;;10.13;8.60;;;2.20;1.00;;;;;;5081733;28;20220;-84
2021/01/11 11:51:00;;;;;;;16.13;8.98;;;2.20;1.00;;;;;;5085213;28;20225;-81
2021/01/11 11:53:28;;;;;;;10.02;8.30;;;2.20;1.00;;;;;;5083518;28;20990;-84
2021/01/11 11:55:57;;;;;;;11.88;9.32;;;2.20;1.00;;;;;;5081188;28;20237;-80
2021/01/11 11:58:24;;;;;;;10.13;8.70;;;2.20;1.00;;;;;;5079331;28;20254;-80
2021/01/11 12:00:50;;;;;;;13.68;9.98;;;2.20;1.00;;;;;;5089806;28;21201;-82
2021/01/11 12:03:25;;;;;;;9.80;8.77;;;2.20;1.00;;;;;;5083120;28;20220;-80
2021/01/11 12:05:55;;;;;;;11.48;8.63;;;2.30;1.00;;;;;;5084535;28;20221;-83
2021/01/11 12:08:22;;;;;;;9.48;7.88;;;2.30;1.00;;;;;;5076226;28;20228;-83
2021/01/11 12:10:53;;;;;;;9.50;7.53;;;2.20;1.00;;;;;;5090012;28;20806;-84
2021/01/11 12:13:21;;;;;;;12.82;9.00;;;2.20;1.00;;;;;;5069607;28;20240;-80
2021/01/11 12:15:47;;;;;;;11.55;9.05;;;2.20;1.00;;;;;;5082832;28;20228;-84
2021/01/11 12:18:14;;;;;;;11.40;7.90;;;2.20;1.00;;;;;;5075066;28;20307;-81
2021/01/11 12:20:43;;;;;;;10.60;8.40;;;2.30;1.00;;;;;;5084955;28;20319;-82
2021/01/11 12:23:09;;;;;;;10.50;9.20;;;2.40;1.00;;;;;;5072279;28;20239;-82
2021/01/11 12:25:36;;;;;;;11.07;8.50;;;2.70;1.00;;;;;;5076944;28;20325;-82
2021/01/11 12:28:06;;;;;;;10.40;8.25;;;3.20;1.00;;;;;;5084603;28;20233;-81
2021/01/11 12:30:32;;;;;;;11.70;8.75;;;3.30;1.00;;;;;;5090622;28;20246;-79
2021/01/11 12:32:58;;;;;;;11.23;8.50;;;3.00;1.00;;;;;;5090824;27;20208;-78
2021/01/11 12:35:25;;;;;;;13.32;9.60;;;2.80;1.00;;;;;;5094202;27;20251;-78
2021/01/11 12:37:51;;;;;;;12.80;8.18;;;2.80;1.00;;;;;;5082135;28;20233;-79
2021/01/11 12:40:18;;;;;;;10.95;7.93;;;2.70;1.00;;;;;;5071481;28;20225;-82
2021/01/11 12:42:44;;;;;;;11.05;9.00;;;2.50;1.00;;;;;;5080991;28;20250;-82
2021/01/11 12:45:16;;;;;;;11.43;8.68;;;2.40;1.00;;;;;;5067270;28;20228;-80
2021/01/11 12:47:42;;;;;;;10.75;8.85;;;2.30;1.00;;;;;;5084287;28;20212;-83
2021/01/11 12:55:42;;;;;;;12.80;8.95;;;2.30;1.00;;;;;;5089146;28;20208;-78
2021/01/11 12:58:08;;;;;;;10.80;9.15;;;2.30;1.00;;;;;;5077733;28;20346;-79
2021/01/11 13:00:36;;;;;;;10.70;9.55;;;2.30;1.00;;;;;;5074260;28;20209;-78
2021/01/11 13:03:04;;;;;;;13.88;9.23;;;2.30;1.00;;;;;;5083789;28;20235;-81
2021/01/11 13:05:37;;;;;;;11.68;9.30;;;2.20;1.00;;;;;;5083037;28;20209;-81